Terminal Aerodrome Forecast
Issued by NWS

Home | Current Version | Previous Version | Text Only | Print | Product List | Glossary On
Versions: 1 2 3 4 5 6 7 8 9 10 11 12 13 14 15 16 17 18 19 20 21 22 23 24 25 26 27 28
000
FTUS45 KBOU 240539
TAFAPA
TAF
KAPA 240539Z 2406/2506 18013G22KT P6SM SCT220
     FM240800 17009KT P6SM SCT220
     FM241500 VRB05KT P6SM FEW140 SCT220
     FM241900 03006KT P6SM FEW090 SCT140
     FM242200 15007KT P6SM SCT080 BKN140
     FM250300 18012KT P6SM SCT080 BKN140=

USA.gov is the U.S. government's official web portal to all federal, state and local government web resources and services.